High gust

Not for real navigation. The accuracy of this data is not assured See disclaimer for more information



ICAO NAME COUNTRY WIND Kt GUST Kt VIS m TEMP/DEW C BARO METAR
KMWN Mount Washington NH United States 70 87 1600 8/8 29.92 KMWN 211850Z 26070G87KT 1/16SM FG VV001 08/08 RMK PK WND 26090/44
LDRI Rijeka / Omisalj Croatia 35 53 9999 5/-4 29.68 LDRI 211830Z 04035G53KT 9999 FEW040 SCT047 05/M04 Q1005
LIVT Trieste Italy 23 46 9999 5/-3 29.77 LIVT 211755Z 04023G46KT 9999 FEW040 05/M03 Q1008 RMK BKN SCT070 QUK / QUL / VIS MAR 15 KM VIS MIN 99
SFAL Stanley Airport Falkland Islands, Islas Malvin 35 45 9999 13/11 29.71 SFAL 211850Z 36035G45KT 9999 OVC006 13/11 Q1006
SCCI Punta Arenas Chile 32 45 9999 13/3 29.32 SCCI 211900Z 24032G45KT 9999 FEW040 BKN100 13/03 Q0993 NOSIG

Show more